createdAt,value
2022-09-17T00:01:26.321Z,99850.00
2022-09-17T00:03:55.698Z,99853.00
2022-09-17T00:06:25.080Z,99851.00
2022-09-17T00:08:53.947Z,99850.00
2022-09-17T00:11:25.886Z,99853.00
2022-09-17T00:13:54.757Z,99856.00
2022-09-17T00:16:25.917Z,99856.00
2022-09-17T00:18:53.982Z,99860.00
2022-09-17T00:21:22.422Z,99862.00
2022-09-17T00:23:53.788Z,99856.00
2022-09-17T00:26:22.923Z,99864.00
2022-09-17T00:28:52.379Z,99872.00
2022-09-17T00:31:20.595Z,99858.00
2022-09-17T00:33:48.435Z,99864.00
2022-09-17T00:36:16.533Z,99859.00
2022-09-17T00:38:44.459Z,99860.00
2022-09-17T00:41:12.198Z,99871.00
2022-09-17T00:43:45.909Z,99861.00
2022-09-17T00:46:25.152Z,99873.00
2022-09-17T00:48:54.511Z,99867.00
2022-09-17T00:51:28.394Z,99870.00
2022-09-17T00:53:57.065Z,99873.00
2022-09-17T00:56:27.654Z,99871.00
2022-09-17T00:58:57.110Z,99868.00
2022-09-17T01:01:25.434Z,99869.00
2022-09-17T01:03:53.225Z,99865.00
2022-09-17T01:06:29.247Z,99872.00
2022-09-17T01:09:13.981Z,99874.00
2022-09-17T01:11:56.754Z,99871.00
2022-09-17T01:14:40.493Z,99888.00
2022-09-17T01:17:16.124Z,99878.00
2022-09-17T01:20:13.195Z,99880.00
2022-09-17T01:22:52.140Z,99881.00
2022-09-17T01:25:24.967Z,99877.00
2022-09-17T01:28:19.756Z,99871.00
2022-09-17T01:31:04.999Z,99875.00
2022-09-17T01:33:41.186Z,99880.00
2022-09-17T01:36:21.728Z,99878.00
2022-09-17T01:38:55.848Z,99879.00
2022-09-17T01:41:32.751Z,99887.00
2022-09-17T01:44:07.479Z,99882.00
2022-09-17T01:46:41.394Z,99887.00
2022-09-17T01:49:11.219Z,99894.00
2022-09-17T01:51:42.252Z,99898.00
2022-09-17T01:54:16.269Z,99897.00
2022-09-17T01:56:49.126Z,99900.00
2022-09-17T01:59:21.240Z,99905.00
2022-09-17T02:01:54.897Z,99900.00
2022-09-17T02:04:27.482Z,99901.00
2022-09-17T02:07:00.590Z,99909.00
2022-09-17T02:09:32.890Z,99904.00
2022-09-17T02:12:04.763Z,99894.00
2022-09-17T02:14:37.882Z,99907.00
2022-09-17T02:17:13.916Z,99907.00
2022-09-17T02:19:42.569Z,99898.00
2022-09-17T02:22:22.233Z,99898.00
2022-09-17T02:24:58.563Z,99915.00
2022-09-17T02:27:38.040Z,99907.00
2022-09-17T02:30:07.000Z,99903.00
2022-09-17T02:32:37.285Z,99918.00
2022-09-17T02:35:06.381Z,99915.00
2022-09-17T02:37:34.432Z,99919.00
2022-09-17T02:40:03.084Z,99912.00
2022-09-17T02:42:37.664Z,99920.00
2022-09-17T02:45:12.818Z,99931.00
2022-09-17T02:48:03.213Z,99917.00
2022-09-17T02:50:58.946Z,99928.00
2022-09-17T02:53:38.151Z,99920.00
2022-09-17T02:56:15.408Z,99917.00
2022-09-17T02:58:48.922Z,99921.00
2022-09-17T03:01:29.694Z,99914.00
2022-09-17T03:04:02.726Z,99916.00
2022-09-17T03:06:30.795Z,99920.00
2022-09-17T03:08:58.594Z,99933.00
2022-09-17T03:11:26.681Z,99919.00
2022-09-17T03:13:55.003Z,99922.00
2022-09-17T03:16:22.725Z,99924.00
2022-09-17T03:18:50.445Z,99916.00
2022-09-17T03:21:19.510Z,99922.00
2022-09-17T03:23:48.079Z,99922.00
2022-09-17T03:26:15.861Z,99929.00
2022-09-17T03:28:43.587Z,99933.00
2022-09-17T03:31:11.397Z,99943.00
2022-09-17T03:33:39.152Z,99936.00
2022-09-17T03:36:07.896Z,99950.00
2022-09-17T03:38:38.442Z,99938.00
2022-09-17T03:41:07.948Z,99940.00
2022-09-17T03:43:36.073Z,99943.00
2022-09-17T03:46:04.211Z,99932.00
2022-09-17T03:48:32.271Z,99945.00
2022-09-17T03:51:00.035Z,99941.00
2022-09-17T03:53:27.744Z,99950.00
2022-09-17T03:55:59.232Z,99944.00
2022-09-17T03:58:26.911Z,99937.00
2022-09-17T04:00:57.605Z,99948.00
2022-09-17T04:03:25.857Z,99951.00
2022-09-17T04:05:53.635Z,99948.00
2022-09-17T04:08:21.778Z,99958.00
2022-09-17T04:10:49.578Z,99951.00
2022-09-17T04:13:19.038Z,99953.00
2022-09-17T04:15:47.834Z,99953.00
2022-09-17T04:18:16.018Z,99951.00
2022-09-17T04:20:44.128Z,99961.00
2022-09-17T04:23:12.922Z,99971.00
2022-09-17T04:25:40.704Z,99964.00
2022-09-17T04:28:08.442Z,99972.00
2022-09-17T04:30:37.623Z,99981.00
2022-09-17T04:33:05.844Z,99975.00
2022-09-17T04:35:33.578Z,99973.00
2022-09-17T04:38:01.287Z,99972.00
2022-09-17T04:40:30.527Z,99977.00
2022-09-17T04:43:02.958Z,99977.00
2022-09-17T04:45:33.265Z,99978.00
2022-09-17T04:48:02.932Z,99973.00
2022-09-17T04:50:30.826Z,99991.00
2022-09-17T04:52:58.934Z,99986.00
2022-09-17T04:55:27.443Z,99985.00
2022-09-17T04:57:55.448Z,99974.00
2022-09-17T05:00:24.390Z,99980.00
2022-09-17T05:02:54.351Z,99977.00
2022-09-17T05:05:24.592Z,99972.00
2022-09-17T05:07:52.322Z,99984.00
2022-09-17T05:10:21.891Z,99986.00
2022-09-17T05:12:50.720Z,99970.00
2022-09-17T05:15:18.936Z,99992.00
2022-09-17T05:17:47.122Z,99990.00
2022-09-17T05:20:15.689Z,99989.00
2022-09-17T05:22:46.654Z,100000.00
2022-09-17T05:25:16.238Z,100007.00
2022-09-17T05:27:44.246Z,100019.00
2022-09-17T05:30:13.059Z,100011.00
2022-09-17T05:32:41.037Z,99994.00
2022-09-17T05:35:09.995Z,100007.00
2022-09-17T05:37:38.420Z,100004.00
2022-09-17T05:40:10.195Z,100008.00
2022-09-17T05:42:38.052Z,100015.00
2022-09-17T05:45:07.110Z,100008.00
2022-09-17T05:47:35.334Z,100006.00
2022-09-17T05:50:03.070Z,100012.00
2022-09-17T05:52:30.856Z,100014.00
2022-09-17T05:54:58.564Z,100018.00
2022-09-17T05:57:30.357Z,100028.00
2022-09-17T05:59:58.048Z,100027.00
2022-09-17T06:02:25.878Z,100021.00
2022-09-17T06:04:53.592Z,100023.00
2022-09-17T06:07:21.679Z,100034.00
2022-09-17T06:09:49.353Z,100042.00
2022-09-17T06:12:17.821Z,100039.00
2022-09-17T06:14:46.925Z,100035.00
2022-09-17T06:17:17.919Z,100028.00
2022-09-17T06:19:47.958Z,100042.00
2022-09-17T06:22:15.672Z,100038.00
2022-09-17T06:24:43.350Z,100044.00
2022-09-17T06:27:11.086Z,100036.00
2022-09-17T06:29:38.834Z,100049.00
2022-09-17T06:32:10.928Z,100041.00
2022-09-17T06:34:38.631Z,100049.00
2022-09-17T06:37:06.681Z,100048.00
2022-09-17T06:39:34.466Z,100048.00
2022-09-17T06:42:02.193Z,100049.00
2022-09-17T06:44:29.939Z,100053.00
2022-09-17T06:46:58.061Z,100057.00
2022-09-17T06:49:27.186Z,100070.00
2022-09-17T06:51:54.920Z,100065.00
2022-09-17T06:54:22.649Z,100057.00
2022-09-17T06:56:50.376Z,100060.00
2022-09-17T06:59:18.766Z,100053.00
2022-09-17T07:01:47.376Z,100048.00
2022-09-17T07:04:17.399Z,100047.00
2022-09-17T07:06:46.696Z,100047.00
2022-09-17T07:09:14.409Z,100055.00
2022-09-17T07:11:42.188Z,100060.00
2022-09-17T07:14:09.925Z,100047.00
2022-09-17T07:16:38.517Z,100049.00
2022-09-17T07:19:07.023Z,100046.00
2022-09-17T07:21:34.756Z,100043.00
2022-09-17T07:24:04.491Z,100035.00
2022-09-17T07:26:32.227Z,100041.00
2022-09-17T07:29:00.024Z,100044.00
2022-09-17T07:31:27.937Z,100047.00
2022-09-17T07:33:55.776Z,100046.00
2022-09-17T07:36:23.461Z,100047.00
2022-09-17T07:38:51.143Z,100041.00
2022-09-17T07:41:20.276Z,100042.00
2022-09-17T07:43:47.961Z,100049.00
2022-09-17T07:46:17.357Z,100044.00
2022-09-17T07:48:45.962Z,100057.00
2022-09-17T07:51:17.595Z,100044.00
2022-09-17T07:53:45.684Z,100066.00
2022-09-17T07:56:13.493Z,100045.00
2022-09-17T07:58:42.594Z,100051.00
2022-09-17T08:01:12.449Z,100044.00
2022-09-17T08:03:41.164Z,100045.00
2022-09-17T08:06:10.170Z,100046.00
2022-09-17T08:08:39.435Z,100040.00
2022-09-17T08:11:08.771Z,100057.00
2022-09-17T08:13:36.796Z,100047.00
2022-09-17T08:16:08.479Z,100040.00
2022-09-17T08:18:36.659Z,100042.00
2022-09-17T08:21:06.476Z,100042.00
2022-09-17T08:23:36.504Z,100042.00
2022-09-17T08:26:06.038Z,100053.00
2022-09-17T08:28:34.219Z,100060.00
2022-09-17T08:31:03.406Z,100038.00
2022-09-17T08:33:33.645Z,100043.00
2022-09-17T08:36:01.451Z,100040.00
2022-09-17T08:38:31.720Z,100043.00
2022-09-17T08:41:12.585Z,100049.00
2022-09-17T08:43:45.438Z,100040.00
2022-09-17T08:46:13.549Z,100033.00
2022-09-17T08:48:45.328Z,100031.00
2022-09-17T08:51:28.547Z,100043.00
2022-09-17T08:54:02.715Z,100043.00
2022-09-17T08:56:34.343Z,100044.00
2022-09-17T08:59:19.702Z,100046.00
2022-09-17T09:01:57.673Z,100040.00
2022-09-17T09:05:02.693Z,100042.00
2022-09-17T09:07:35.629Z,100038.00
2022-09-17T09:10:12.789Z,100033.00
2022-09-17T09:12:41.743Z,100046.00
2022-09-17T09:15:22.694Z,100055.00
2022-09-17T09:17:52.467Z,100041.00
2022-09-17T09:20:29.874Z,100036.00
2022-09-17T09:23:01.958Z,100052.00
2022-09-17T09:25:33.569Z,100038.00
2022-09-17T09:28:11.994Z,100031.00
2022-09-17T09:30:52.307Z,100036.00
2022-09-17T09:33:28.399Z,100031.00
2022-09-17T09:35:57.661Z,100031.00
2022-09-17T09:38:32.298Z,100032.00
2022-09-17T09:41:09.841Z,100026.00
2022-09-17T09:44:02.826Z,100030.00
2022-09-17T09:46:49.398Z,100012.00
2022-09-17T09:49:27.833Z,100034.00
2022-09-17T09:52:07.943Z,100031.00
2022-09-17T09:54:51.702Z,100021.00
2022-09-17T09:57:26.738Z,100023.00
2022-09-17T10:00:23.318Z,100019.00
2022-09-17T10:02:54.892Z,100025.00
2022-09-17T10:05:22.699Z,100023.00
2022-09-17T10:07:52.541Z,100028.00
2022-09-17T10:10:20.830Z,100023.00
2022-09-17T10:12:48.595Z,100027.00
2022-09-17T10:15:25.902Z,100033.00
2022-09-17T10:18:13.591Z,100034.00
2022-09-17T10:20:55.857Z,100036.00
2022-09-17T10:23:27.605Z,100027.00
2022-09-17T10:25:56.589Z,100032.00
2022-09-17T10:28:34.574Z,100029.00
2022-09-17T10:31:08.860Z,100014.00
2022-09-17T10:33:40.735Z,100028.00
2022-09-17T10:36:10.125Z,100012.00
2022-09-17T10:38:40.721Z,100023.00
2022-09-17T10:41:16.980Z,100023.00
2022-09-17T10:43:45.298Z,100029.00
2022-09-17T10:46:27.936Z,100024.00
2022-09-17T10:49:09.345Z,100018.00
2022-09-17T10:51:38.466Z,100023.00
2022-09-17T10:54:29.962Z,100016.00
2022-09-17T10:57:00.561Z,100022.00
2022-09-17T10:59:56.408Z,100031.00
2022-09-17T11:03:01.038Z,100011.00
2022-09-17T11:05:46.139Z,100014.00
2022-09-17T11:08:20.516Z,100014.00
2022-09-17T11:10:59.219Z,99996.00
2022-09-17T11:13:37.807Z,100008.00
2022-09-17T11:16:15.918Z,100007.00
2022-09-17T11:18:46.581Z,99996.00
2022-09-17T11:21:42.750Z,99997.00
2022-09-17T11:24:48.866Z,100006.00
2022-09-17T11:27:49.918Z,100004.00
2022-09-17T11:30:20.226Z,100008.00
2022-09-17T11:33:29.372Z,100019.00
2022-09-17T11:36:00.347Z,100007.00
2022-09-17T11:38:31.547Z,100016.00
2022-09-17T11:41:04.185Z,100026.00
2022-09-17T11:43:35.848Z,100024.00
2022-09-17T11:46:09.695Z,100022.00
2022-09-17T11:48:44.440Z,100020.00
2022-09-17T11:51:23.494Z,100027.00
2022-09-17T11:53:54.282Z,100027.00
2022-09-17T11:56:26.715Z,100025.00
2022-09-17T11:59:01.375Z,100020.00
2022-09-17T12:01:36.965Z,100023.00
2022-09-17T12:04:20.951Z,100016.00
2022-09-17T12:06:54.781Z,100029.00
2022-09-17T12:09:26.771Z,100056.00
2022-09-17T12:12:01.408Z,100055.00
2022-09-17T12:14:39.182Z,100073.00
2022-09-17T12:17:08.159Z,100059.00
2022-09-17T12:19:40.883Z,100063.00
2022-09-17T12:22:11.985Z,100057.00
2022-09-17T12:24:40.334Z,100052.00
2022-09-17T12:27:30.210Z,100062.00
2022-09-17T12:30:09.489Z,100051.00
2022-09-17T12:32:58.617Z,100069.00
2022-09-17T12:39:03.523Z,100056.00
2022-09-17T12:41:43.802Z,100049.00
2022-09-17T12:44:46.515Z,100048.00
2022-09-17T12:47:34.236Z,100040.00
2022-09-17T12:50:15.696Z,100043.00
2022-09-17T12:52:58.906Z,100031.00
2022-09-17T12:55:35.375Z,100035.00
2022-09-17T12:58:14.031Z,100053.00
2022-09-17T13:00:45.862Z,100062.00
2022-09-17T13:03:20.975Z,100068.00
2022-09-17T13:06:23.423Z,100064.00
2022-09-17T13:09:08.299Z,100060.00
2022-09-17T13:11:52.733Z,100066.00
2022-09-17T13:14:28.577Z,100057.00
2022-09-17T13:17:02.052Z,100044.00
2022-09-17T13:19:39.291Z,100045.00
2022-09-17T13:22:10.608Z,100046.00
2022-09-17T13:24:38.556Z,100041.00
2022-09-17T13:27:07.436Z,100035.00
2022-09-17T13:30:00.557Z,100038.00
2022-09-17T13:32:44.506Z,100041.00
2022-09-17T13:35:51.522Z,100042.00
2022-09-17T13:38:24.465Z,100028.00
2022-09-17T13:40:53.286Z,100023.00
2022-09-17T13:43:27.007Z,100020.00
2022-09-17T13:46:15.494Z,100027.00
2022-09-17T13:48:50.566Z,100020.00
2022-09-17T13:52:03.983Z,100015.00
2022-09-17T13:54:39.720Z,100006.00
2022-09-17T13:57:14.539Z,100004.00
2022-09-17T13:59:55.181Z,99997.00
2022-09-17T14:02:37.959Z,99999.00
2022-09-17T14:05:33.319Z,100002.00
2022-09-17T14:08:28.556Z,100009.00
2022-09-17T14:10:59.852Z,99996.00
2022-09-17T14:13:44.683Z,99986.00
2022-09-17T14:16:37.013Z,99985.00
2022-09-17T14:19:22.228Z,99981.00
2022-09-17T14:22:00.377Z,99977.00
2022-09-17T14:24:35.978Z,99980.00
2022-09-17T14:27:20.189Z,99975.00
2022-09-17T14:30:04.910Z,99975.00
2022-09-17T14:32:40.235Z,99982.00
2022-09-17T14:35:20.153Z,99975.00
2022-09-17T14:37:53.500Z,99977.00
2022-09-17T14:40:23.944Z,99968.00
2022-09-17T14:42:56.587Z,99973.00
2022-09-17T14:45:29.001Z,99977.00
2022-09-17T14:48:27.870Z,99976.00
2022-09-17T14:51:17.653Z,99984.00
2022-09-17T14:53:45.447Z,99980.00
2022-09-17T14:56:16.146Z,99984.00
2022-09-17T14:58:49.377Z,99992.00
2022-09-17T15:01:25.025Z,99992.00
2022-09-17T15:04:21.165Z,99983.00
2022-09-17T15:06:48.898Z,99985.00
2022-09-17T15:09:17.741Z,99977.00
2022-09-17T15:11:47.994Z,99981.00
2022-09-17T15:14:21.273Z,99981.00
2022-09-17T15:16:51.512Z,99971.00
2022-09-17T15:19:24.724Z,99980.00
2022-09-17T15:21:55.379Z,99985.00
2022-09-17T15:24:39.089Z,99977.00
2022-09-17T15:27:13.774Z,99974.00
2022-09-17T15:29:46.310Z,99986.00
2022-09-17T15:32:15.472Z,99984.00
2022-09-17T15:34:43.299Z,99975.00
2022-09-17T15:37:19.377Z,99968.00
2022-09-17T15:39:52.118Z,99961.00
2022-09-17T15:42:22.877Z,99949.00
2022-09-17T15:44:52.098Z,99950.00
2022-09-17T15:47:52.137Z,99957.00
2022-09-17T15:50:21.753Z,99994.00
2022-09-17T15:52:50.233Z,99986.00
2022-09-17T15:55:33.153Z,99969.00
2022-09-17T15:58:02.232Z,99971.00
2022-09-17T16:00:31.892Z,99968.00
2022-09-17T16:02:59.674Z,99966.00
2022-09-17T16:05:50.863Z,99963.00
2022-09-17T16:08:25.699Z,99974.00
2022-09-17T16:10:53.543Z,99951.00
2022-09-17T16:13:24.135Z,99967.00
2022-09-17T16:15:57.566Z,99964.00
2022-09-17T16:18:25.897Z,99970.00
2022-09-17T16:20:53.582Z,99974.00
2022-09-17T16:23:21.350Z,99973.00
2022-09-17T16:25:49.554Z,99964.00
2022-09-17T16:28:20.257Z,99972.00
2022-09-17T16:30:49.464Z,99977.00
2022-09-17T16:33:19.879Z,99977.00
2022-09-17T16:35:47.591Z,99979.00
2022-09-17T16:38:16.336Z,99975.00
2022-09-17T16:40:46.562Z,99976.00
2022-09-17T16:43:14.655Z,99982.00
2022-09-17T16:45:42.817Z,99983.00
2022-09-17T16:48:10.819Z,99983.00
2022-09-17T16:50:42.961Z,99981.00
2022-09-17T16:53:10.718Z,99990.00
2022-09-17T16:55:39.785Z,99994.00
2022-09-17T16:58:07.586Z,99994.00
2022-09-17T17:00:35.577Z,99996.00
2022-09-17T17:03:03.986Z,99989.00
2022-09-17T17:05:32.420Z,99995.00
2022-09-17T17:08:06.484Z,99993.00
2022-09-17T17:10:34.997Z,99994.00
2022-09-17T17:13:02.897Z,99996.00
2022-09-17T17:15:30.693Z,100006.00
2022-09-17T17:17:59.323Z,100003.00
2022-09-17T17:20:27.198Z,100001.00
2022-09-17T17:22:55.991Z,100009.00
2022-09-17T17:25:26.937Z,100013.00
2022-09-17T17:27:54.730Z,100010.00
2022-09-17T17:30:22.767Z,100027.00
2022-09-17T17:32:51.913Z,100016.00
2022-09-17T17:35:20.423Z,100018.00
2022-09-17T17:37:48.690Z,100022.00
2022-09-17T17:40:16.827Z,100020.00
2022-09-17T17:42:47.443Z,100034.00
2022-09-17T17:45:15.912Z,100032.00
2022-09-17T17:47:43.660Z,100024.00
2022-09-17T17:50:11.687Z,100045.00
2022-09-17T17:52:40.298Z,100040.00
2022-09-17T17:55:08.978Z,100041.00
2022-09-17T17:57:36.772Z,100048.00
2022-09-17T18:00:07.184Z,100041.00
2022-09-17T18:02:35.020Z,100046.00
2022-09-17T18:05:04.522Z,100054.00
2022-09-17T18:07:32.479Z,100055.00
2022-09-17T18:10:00.286Z,100044.00
2022-09-17T18:12:28.114Z,100070.00
2022-09-17T18:14:55.789Z,100060.00
2022-09-17T18:17:24.947Z,100075.00
2022-09-17T18:19:52.669Z,100058.00
2022-09-17T18:22:20.819Z,100069.00
2022-09-17T18:24:48.543Z,100061.00
2022-09-17T18:27:16.323Z,100073.00
2022-09-17T18:29:44.232Z,100075.00
2022-09-17T18:32:11.925Z,100067.00
2022-09-17T18:34:42.270Z,100077.00
2022-09-17T18:37:11.209Z,100074.00
2022-09-17T18:42:26.650Z,100086.00
2022-09-17T18:44:54.340Z,100092.00
2022-09-17T18:47:21.995Z,100083.00
2022-09-17T18:49:51.104Z,100082.00
2022-09-17T18:52:18.821Z,100090.00
2022-09-17T18:54:46.818Z,100084.00
2022-09-17T18:57:14.820Z,100085.00
2022-09-17T18:59:42.583Z,100095.00
2022-09-17T19:02:13.014Z,100094.00
2022-09-17T19:04:40.978Z,100088.00
2022-09-17T19:07:10.251Z,100090.00
2022-09-17T19:09:38.237Z,100088.00
2022-09-17T19:12:06.160Z,100096.00
2022-09-17T19:14:33.998Z,100090.00
2022-09-17T19:17:01.757Z,100093.00
2022-09-17T19:19:29.958Z,100100.00
2022-09-17T19:21:57.692Z,100088.00
2022-09-17T19:24:26.815Z,100083.00
2022-09-17T19:26:54.618Z,100097.00
2022-09-17T19:29:22.366Z,100094.00
2022-09-17T19:31:50.306Z,100100.00
2022-09-17T19:34:18.090Z,100101.00
2022-09-17T19:36:45.960Z,100108.00
2022-09-17T19:39:13.869Z,100114.00
2022-09-17T19:41:43.019Z,100097.00
2022-09-17T19:44:11.047Z,100109.00
2022-09-17T19:46:38.817Z,100107.00
2022-09-17T19:49:06.956Z,100120.00
2022-09-17T19:51:35.242Z,100105.00
2022-09-17T19:54:03.016Z,100112.00
2022-09-17T19:56:30.734Z,100117.00
2022-09-17T19:58:59.813Z,100130.00
2022-09-17T20:01:27.580Z,100132.00
2022-09-17T20:03:55.458Z,100137.00
2022-09-17T20:06:23.883Z,100142.00
2022-09-17T20:08:53.404Z,100150.00
2022-09-17T20:11:23.250Z,100140.00
2022-09-17T20:13:51.523Z,100149.00
2022-09-17T20:16:22.663Z,100160.00
2022-09-17T20:18:51.029Z,100153.00
2022-09-17T20:21:21.141Z,100152.00
2022-09-17T20:23:48.925Z,100148.00
2022-09-17T20:26:17.479Z,100146.00
2022-09-17T20:28:45.557Z,100151.00
2022-09-17T20:31:15.731Z,100141.00
2022-09-17T20:33:45.040Z,100152.00
2022-09-17T20:36:14.937Z,100146.00
2022-09-17T20:39:11.425Z,100155.00
2022-09-17T20:41:31.460Z,100148.00
2022-09-17T20:43:59.806Z,100147.00
2022-09-17T20:46:29.483Z,100149.00
2022-09-17T20:48:59.054Z,100148.00
2022-09-17T20:51:28.033Z,100142.00
2022-09-17T20:53:56.981Z,100145.00
2022-09-17T20:56:26.391Z,100147.00
2022-09-17T20:59:00.057Z,100145.00
2022-09-17T21:01:32.834Z,100147.00
2022-09-17T21:04:03.674Z,100149.00
2022-09-17T21:06:33.195Z,100149.00
2022-09-17T21:09:01.661Z,100148.00
2022-09-17T21:11:31.071Z,100166.00
2022-09-17T21:14:00.150Z,100168.00
2022-09-17T21:16:28.321Z,100169.00
2022-09-17T21:18:57.892Z,100165.00
2022-09-17T21:21:27.145Z,100176.00
2022-09-17T21:23:54.933Z,100179.00
2022-09-17T21:26:24.162Z,100185.00
2022-09-17T21:28:53.487Z,100183.00
2022-09-17T21:31:22.964Z,100190.00
2022-09-17T21:33:54.144Z,100202.00
2022-09-17T21:36:23.146Z,100187.00
2022-09-17T21:38:53.382Z,100203.00
2022-09-17T21:41:22.101Z,100201.00
2022-09-17T21:43:51.731Z,100204.00
2022-09-17T21:46:22.078Z,100202.00
2022-09-17T21:48:51.608Z,100197.00
2022-09-17T21:51:20.837Z,100204.00
2022-09-17T21:53:52.836Z,100195.00
2022-09-17T21:56:21.625Z,100213.00
2022-09-17T21:58:53.335Z,100228.00
2022-09-17T22:01:23.486Z,100225.00
2022-09-17T22:03:51.482Z,100230.00
2022-09-17T22:06:22.373Z,100237.00
2022-09-17T22:08:52.438Z,100236.00
2022-09-17T22:11:22.040Z,100244.00
2022-09-17T22:13:53.879Z,100234.00
2022-09-17T22:16:22.587Z,100232.00
2022-09-17T22:18:51.389Z,100232.00
2022-09-17T22:21:22.927Z,100218.00
2022-09-17T22:23:53.189Z,100219.00
2022-09-17T22:26:22.001Z,100213.00
2022-09-17T22:28:50.217Z,100211.00
2022-09-17T22:31:18.896Z,100210.00
2022-09-17T22:33:47.974Z,100208.00
2022-09-17T22:36:16.969Z,100210.00
2022-09-17T22:38:47.994Z,100210.00
2022-09-17T22:41:19.641Z,100216.00
2022-09-17T22:43:47.889Z,100216.00
2022-09-17T22:46:19.444Z,100213.00
2022-09-17T22:48:47.963Z,100224.00
2022-09-17T22:51:16.062Z,100226.00
2022-09-17T22:53:44.422Z,100218.00
2022-09-17T22:56:14.282Z,100221.00
2022-09-17T22:58:43.692Z,100214.00
2022-09-17T23:01:15.544Z,100193.00
2022-09-17T23:03:44.030Z,100206.00
2022-09-17T23:06:13.450Z,100207.00
2022-09-17T23:08:41.678Z,100201.00
2022-09-17T23:11:16.052Z,100194.00
2022-09-17T23:13:45.140Z,100208.00
2022-09-17T23:16:12.955Z,100200.00
2022-09-17T23:18:40.800Z,100201.00
2022-09-17T23:21:13.227Z,100198.00
2022-09-17T23:23:42.182Z,100185.00
2022-09-17T23:26:12.678Z,100197.00
2022-09-17T23:28:40.687Z,100205.00
2022-09-17T23:31:10.687Z,100198.00
2022-09-17T23:33:38.596Z,100190.00
2022-09-17T23:36:07.307Z,100195.00
2022-09-17T23:38:35.472Z,100193.00
2022-09-17T23:41:10.896Z,100192.00
2022-09-17T23:43:38.618Z,100193.00
2022-09-17T23:46:06.676Z,100195.00
2022-09-17T23:48:35.802Z,100200.00
2022-09-17T23:51:04.062Z,100203.00
2022-09-17T23:53:32.828Z,100201.00
2022-09-17T23:56:01.280Z,100199.00
2022-09-17T23:58:30.326Z,100205.00
